Time;durP1;ratioP1;P1;durP2;ratioP2;P2;SDS_P1;SDS_P2;PMS_P1;PMS_P2;Temp;Humidity;BMP_temperature;BMP_pressure;BME280_temperature;BME280_humidity;BME280_pressure;Samples;Min_cycle;Max_cycle;Signal;HPM_P1;HPM_P2
2024/01/05 00:00:09;;;;;;;18.10;5.13;;;6.80;99.90;;;;;;4999160;28;20915;-65
2024/01/05 00:02:37;;;;;;;14.43;4.40;;;6.90;99.90;;;;;;4998900;28;20458;-65
2024/01/05 00:05:04;;;;;;;12.07;4.63;;;6.80;99.90;;;;;;4998906;28;20949;-64
2024/01/05 00:07:32;;;;;;;18.77;4.70;;;6.80;99.90;;;;;;5015685;28;20544;-65
2024/01/05 00:10:00;;;;;;;19.07;6.07;;;6.90;99.90;;;;;;5017949;28;20464;-61
2024/01/05 00:12:29;;;;;;;10.57;5.67;;;6.90;99.90;;;;;;5018213;28;20456;-66
2024/01/05 00:14:57;;;;;;;15.77;5.37;;;6.90;99.90;;;;;;5019077;28;20462;-66
2024/01/05 00:17:26;;;;;;;15.00;5.27;;;6.80;99.90;;;;;;5018995;28;20456;-67
2024/01/05 00:19:54;;;;;;;12.27;4.43;;;6.80;99.90;;;;;;5018805;28;20456;-67
2024/01/05 00:22:21;;;;;;;16.93;5.43;;;6.90;99.90;;;;;;5019081;28;20464;-67
2024/01/05 00:24:49;;;;;;;13.60;5.17;;;6.90;99.90;;;;;;5018567;28;20511;-67
2024/01/05 00:27:16;;;;;;;11.63;4.90;;;6.90;99.90;;;;;;5018284;28;20546;-68
2024/01/05 00:29:44;;;;;;;13.27;4.30;;;6.90;99.90;;;;;;5018621;28;20464;-68
2024/01/05 00:32:11;;;;;;;17.73;6.20;;;7.00;99.90;;;;;;5017521;28;20460;-67
2024/01/05 00:34:40;;;;;;;8.30;5.10;;;7.00;99.90;;;;;;5018913;28;20889;-66
2024/01/05 00:37:08;;;;;;;12.37;4.13;;;7.00;99.90;;;;;;5018121;28;20500;-69
2024/01/05 00:39:35;;;;;;;12.50;5.10;;;7.00;99.90;;;;;;5019244;28;20519;-66
2024/01/05 00:42:04;;;;;;;13.00;5.20;;;7.00;99.90;;;;;;5018037;28;20538;-69
2024/01/05 00:44:31;;;;;;;15.93;4.60;;;7.00;99.90;;;;;;5017375;28;20940;-69
2024/01/05 00:46:58;;;;;;;12.70;4.37;;;7.00;99.90;;;;;;5018959;28;20464;-65
2024/01/05 00:49:26;;;;;;;15.57;4.73;;;7.00;99.90;;;;;;5018003;28;20455;-69
2024/01/05 00:51:55;;;;;;;15.90;4.83;;;7.00;99.90;;;;;;5017988;28;20890;-69
2024/01/05 00:54:22;;;;;;;15.57;5.20;;;6.90;99.90;;;;;;5018051;28;20503;-69
2024/01/05 00:56:49;;;;;;;13.57;5.10;;;6.90;99.90;;;;;;5020137;28;20511;-69
2024/01/05 00:59:20;;;;;;;14.93;4.10;;;6.80;99.90;;;;;;5017835;28;20468;-69
2024/01/05 01:01:48;;;;;;;15.97;4.67;;;6.90;99.90;;;;;;5020941;28;20464;-66
2024/01/05 01:04:16;;;;;;;17.30;6.13;;;6.90;99.90;;;;;;5021826;28;20470;-68
2024/01/05 01:06:44;;;;;;;18.10;4.97;;;6.90;99.90;;;;;;5022595;28;20464;-68
2024/01/05 01:09:12;;;;;;;11.73;3.80;;;7.00;99.90;;;;;;5022808;28;20459;-70
2024/01/05 01:11:40;;;;;;;20.53;5.30;;;7.00;99.90;;;;;;5023270;28;20765;-70
2024/01/05 01:14:07;;;;;;;13.60;4.13;;;7.00;99.90;;;;;;5022732;28;20456;-69
2024/01/05 01:16:35;;;;;;;10.63;4.27;;;7.00;99.90;;;;;;5022217;28;20455;-69
2024/01/05 01:19:02;;;;;;;13.47;4.93;;;7.00;99.90;;;;;;5023443;28;20765;-68
2024/01/05 01:21:29;;;;;;;14.53;4.20;;;7.00;99.90;;;;;;5020024;28;20498;-68
2024/01/05 01:23:56;;;;;;;13.87;3.87;;;7.00;99.90;;;;;;5021370;28;20492;-70
2024/01/05 01:26:25;;;;;;;12.03;3.93;;;7.00;99.90;;;;;;5022066;28;20459;-70
2024/01/05 01:28:53;;;;;;;11.93;4.17;;;7.00;99.90;;;;;;5021313;28;20533;-69
2024/01/05 01:31:20;;;;;;;9.30;4.20;;;6.90;99.90;;;;;;5023102;28;20455;-69
2024/01/05 01:33:47;;;;;;;12.30;3.60;;;6.90;99.90;;;;;;5020241;28;20836;-69
2024/01/05 01:36:14;;;;;;;20.97;5.27;;;6.90;99.90;;;;;;5021972;28;20460;-70
2024/01/05 01:38:42;;;;;;;9.67;4.20;;;6.90;99.90;;;;;;5022112;28;20455;-70
2024/01/05 01:41:09;;;;;;;10.93;3.60;;;6.90;99.90;;;;;;5021588;28;20894;-70
2024/01/05 01:43:38;;;;;;;12.07;4.33;;;6.90;99.90;;;;;;5020689;28;20495;-70
2024/01/05 01:46:06;;;;;;;11.17;4.00;;;7.00;99.90;;;;;;5021571;28;20466;-70
2024/01/05 01:48:34;;;;;;;16.33;3.77;;;7.00;99.90;;;;;;5021294;28;20558;-69
2024/01/05 01:51:01;;;;;;;12.47;3.90;;;7.00;99.90;;;;;;5020937;28;20460;-69
2024/01/05 01:53:29;;;;;;;10.93;3.43;;;6.90;99.90;;;;;;5020670;28;20465;-70
2024/01/05 01:55:57;;;;;;;10.57;3.30;;;6.90;99.90;;;;;;5021806;28;20460;-70
2024/01/05 01:58:25;;;;;;;12.53;4.17;;;7.00;99.90;;;;;;5020488;28;20492;-70
2024/01/05 02:00:54;;;;;;;11.20;3.73;;;7.00;99.90;;;;;;5020972;28;20561;-69
2024/01/05 02:03:21;;;;;;;10.07;3.80;;;6.90;99.90;;;;;;5021371;28;20522;-69
2024/01/05 02:05:49;;;;;;;10.30;4.10;;;6.90;99.90;;;;;;5020854;28;20464;-68
2024/01/05 02:08:17;;;;;;;12.00;4.17;;;6.90;99.90;;;;;;5020634;28;20459;-69
2024/01/05 02:10:44;;;;;;;12.57;4.00;;;6.80;99.90;;;;;;5020652;28;20494;-69
2024/01/05 02:13:11;;;;;;;8.83;3.63;;;6.80;99.90;;;;;;5020575;28;20488;-68
2024/01/05 02:15:39;;;;;;;15.57;4.20;;;6.90;99.90;;;;;;5020556;28;20522;-68
2024/01/05 02:18:12;;;;;;;13.23;3.70;;;6.90;99.90;;;;;;5020611;28;20889;-70
2024/01/05 02:20:40;;;;;;;15.57;4.50;;;7.00;99.90;;;;;;5020225;28;20475;-70
2024/01/05 02:23:12;;;;;;;9.40;4.53;;;6.90;99.90;;;;;;5021041;28;20494;-68
2024/01/05 02:25:42;;;;;;;10.20;3.90;;;6.80;99.90;;;;;;5020832;28;20594;-68
2024/01/05 02:28:09;;;;;;;10.33;3.60;;;6.80;99.90;;;;;;5020717;28;20483;-69
2024/01/05 02:30:36;;;;;;;15.17;3.90;;;6.80;99.90;;;;;;5020890;28;20980;-70
2024/01/05 02:33:04;;;;;;;12.90;3.90;;;6.80;99.90;;;;;;5021189;28;20460;-69
2024/01/05 02:35:31;;;;;;;16.53;4.30;;;6.80;99.90;;;;;;5020630;28;20460;-68
2024/01/05 02:37:58;;;;;;;9.53;3.93;;;6.90;99.90;;;;;;5019832;28;20463;-70
2024/01/05 02:40:25;;;;;;;11.90;4.33;;;6.90;99.90;;;;;;5019707;28;20526;-69
2024/01/05 02:42:54;;;;;;;10.43;4.20;;;6.90;99.90;;;;;;5020209;28;20460;-69
2024/01/05 02:45:21;;;;;;;11.47;4.27;;;6.90;99.90;;;;;;5019616;28;20531;-69
2024/01/05 02:47:49;;;;;;;19.57;3.90;;;6.80;99.90;;;;;;5019503;28;20610;-64
2024/01/05 02:50:16;;;;;;;11.50;4.40;;;6.80;99.90;;;;;;5020599;28;20555;-69
2024/01/05 02:52:43;;;;;;;15.50;4.70;;;6.80;99.90;;;;;;5020280;28;20530;-68
2024/01/05 02:55:11;;;;;;;11.23;3.63;;;6.80;99.90;;;;;;5019858;28;20435;-68
2024/01/05 02:57:39;;;;;;;11.50;4.13;;;6.80;99.90;;;;;;5019675;28;20464;-69
2024/01/05 03:00:09;;;;;;;10.80;4.03;;;6.80;99.90;;;;;;5020429;28;20952;-68
2024/01/05 03:02:36;;;;;;;10.30;3.33;;;6.80;99.90;;;;;;5019709;28;20438;-70
2024/01/05 03:05:05;;;;;;;12.10;4.10;;;6.80;99.90;;;;;;5019258;28;20570;-70
2024/01/05 03:07:33;;;;;;;11.63;4.00;;;6.80;99.90;;;;;;5020051;28;20559;-70
2024/01/05 03:10:00;;;;;;;14.03;3.80;;;6.80;99.90;;;;;;5019563;28;20464;-68
2024/01/05 03:12:27;;;;;;;9.80;3.80;;;6.80;99.90;;;;;;5019353;28;20460;-69
2024/01/05 03:14:55;;;;;;;14.50;4.53;;;6.90;99.90;;;;;;5020374;28;20456;-70
2024/01/05 03:17:24;;;;;;;7.57;3.43;;;6.80;99.90;;;;;;5020841;28;20555;-70
2024/01/05 03:19:51;;;;;;;15.63;3.60;;;6.80;99.90;;;;;;5019492;28;20456;-67
2024/01/05 03:22:18;;;;;;;15.63;4.57;;;6.80;99.90;;;;;;5020161;28;20559;-70
2024/01/05 03:24:45;;;;;;;10.40;4.00;;;6.80;99.90;;;;;;5019035;28;20937;-68
2024/01/05 03:27:14;;;;;;;13.90;4.20;;;6.90;99.90;;;;;;5019641;28;20464;-70
2024/01/05 03:29:42;;;;;;;14.93;4.10;;;6.80;99.90;;;;;;5019292;28;20487;-69
2024/01/05 03:32:09;;;;;;;14.70;3.73;;;6.90;99.90;;;;;;5019091;28;20547;-69
2024/01/05 03:34:39;;;;;;;7.23;3.50;;;6.80;99.90;;;;;;5018587;28;20466;-71
2024/01/05 03:37:06;;;;;;;7.67;3.80;;;6.80;99.90;;;;;;5020254;28;20496;-68
2024/01/05 03:39:33;;;;;;;12.77;4.20;;;6.80;99.90;;;;;;5018864;28;20802;-67
2024/01/05 03:42:00;;;;;;;9.50;4.13;;;6.80;99.90;;;;;;5018384;28;20924;-70
2024/01/05 03:44:28;;;;;;;13.10;4.60;;;6.80;99.90;;;;;;5018544;28;20591;-70
2024/01/05 03:46:55;;;;;;;6.33;3.43;;;6.70;99.90;;;;;;5019173;28;20499;-69
2024/01/05 03:49:22;;;;;;;12.30;3.87;;;6.80;99.90;;;;;;5018077;28;20456;-70
2024/01/05 03:51:51;;;;;;;12.97;5.10;;;6.80;99.90;;;;;;5018612;28;20555;-71
2024/01/05 03:54:18;;;;;;;10.20;3.70;;;6.80;99.90;;;;;;5018548;28;20460;-69
2024/01/05 03:56:46;;;;;;;7.63;3.87;;;6.70;99.90;;;;;;5018686;28;20491;-70
2024/01/05 03:59:14;;;;;;;7.80;4.07;;;6.70;99.90;;;;;;5018302;28;20460;-70
2024/01/05 04:01:45;;;;;;;13.13;3.83;;;6.70;99.90;;;;;;5018643;28;20460;-70
2024/01/05 04:04:12;;;;;;;12.10;4.10;;;6.70;99.90;;;;;;5018568;28;20500;-68
2024/01/05 04:06:40;;;;;;;16.07;4.93;;;6.80;99.90;;;;;;5018675;28;20837;-69
2024/01/05 04:09:10;;;;;;;13.13;3.80;;;6.80;99.90;;;;;;5018562;28;20464;-71
2024/01/05 04:11:38;;;;;;;10.03;3.53;;;6.80;99.90;;;;;;5019208;28;20456;-69
2024/01/05 04:14:05;;;;;;;8.60;4.23;;;6.80;99.90;;;;;;5018387;28;20550;-70
2024/01/05 04:16:33;;;;;;;9.07;3.80;;;6.80;99.90;;;;;;5019028;28;20578;-70
2024/01/05 04:19:00;;;;;;;9.67;4.10;;;6.80;99.90;;;;;;5018918;28;20515;-69
2024/01/05 04:21:27;;;;;;;10.17;4.03;;;6.80;99.90;;;;;;5019224;28;20468;-70
2024/01/05 04:23:56;;;;;;;13.80;3.73;;;6.80;99.90;;;;;;5018319;28;20495;-69
2024/01/05 04:26:25;;;;;;;8.43;3.77;;;6.70;99.90;;;;;;5018525;28;20788;-67
2024/01/05 04:28:52;;;;;;;12.23;4.00;;;6.80;99.90;;;;;;5020842;28;20487;-70
2024/01/05 04:31:19;;;;;;;14.87;5.67;;;6.70;99.90;;;;;;5019806;28;20797;-68
2024/01/05 04:33:46;;;;;;;16.57;5.77;;;6.80;99.90;;;;;;5018914;28;20434;-67
2024/01/05 04:36:15;;;;;;;16.47;4.30;;;6.80;99.90;;;;;;5020066;28;20551;-69
2024/01/05 04:38:43;;;;;;;10.67;4.63;;;6.80;99.90;;;;;;5019359;28;20449;-69
2024/01/05 04:41:10;;;;;;;11.03;4.40;;;6.80;99.90;;;;;;5018096;28;20488;-69
2024/01/05 04:43:39;;;;;;;9.00;3.47;;;6.80;99.90;;;;;;5018214;28;20501;-69
2024/01/05 04:46:06;;;;;;;7.17;4.03;;;6.80;99.90;;;;;;5018669;28;20496;-68
2024/01/05 04:48:34;;;;;;;9.40;4.13;;;6.80;99.90;;;;;;5018381;28;20751;-69
2024/01/05 04:51:01;;;;;;;6.60;3.53;;;6.90;99.90;;;;;;5018784;28;20495;-68
2024/01/05 04:53:29;;;;;;;8.90;4.07;;;6.90;99.90;;;;;;5017789;28;20889;-69
2024/01/05 04:55:56;;;;;;;10.30;4.00;;;7.00;99.90;;;;;;5017899;28;20463;-69
2024/01/05 04:58:24;;;;;;;8.43;3.27;;;7.00;99.90;;;;;;5017582;28;20495;-69
2024/01/05 05:00:53;;;;;;;9.70;3.80;;;7.00;99.90;;;;;;5017657;28;20460;-69
2024/01/05 05:03:21;;;;;;;8.83;3.70;;;7.10;99.90;;;;;;5017475;28;20525;-71
2024/01/05 05:05:48;;;;;;;19.03;4.13;;;7.00;99.90;;;;;;5016885;28;20495;-69
2024/01/05 05:08:15;;;;;;;7.43;4.40;;;7.10;99.90;;;;;;5017388;28;20478;-70
2024/01/05 05:10:43;;;;;;;11.33;4.07;;;7.10;99.90;;;;;;5017364;28;20467;-69
2024/01/05 05:13:10;;;;;;;7.97;3.90;;;7.20;99.90;;;;;;5017631;28;20483;-69
2024/01/05 05:15:38;;;;;;;13.83;5.50;;;7.20;99.90;;;;;;5017226;28;20461;-69
2024/01/05 05:18:07;;;;;;;14.10;4.57;;;7.20;99.90;;;;;;5017907;28;20441;-69
2024/01/05 05:20:34;;;;;;;9.40;3.80;;;7.20;99.90;;;;;;5016918;28;20468;-73
2024/01/05 05:23:01;;;;;;;8.00;3.87;;;7.20;99.90;;;;;;5017145;28;20813;-73
2024/01/05 05:25:28;;;;;;;6.07;3.50;;;7.20;99.90;;;;;;5016417;28;20776;-73
2024/01/05 05:27:56;;;;;;;12.80;4.83;;;7.20;99.90;;;;;;5016804;28;20955;-74
2024/01/05 05:30:23;;;;;;;11.10;3.53;;;7.20;99.90;;;;;;5017317;28;20526;-73
2024/01/05 05:32:50;;;;;;;9.80;4.30;;;7.20;99.90;;;;;;5017024;28;20499;-72
2024/01/05 05:35:19;;;;;;;12.13;4.17;;;7.20;99.90;;;;;;5017328;28;20495;-75
2024/01/05 05:37:46;;;;;;;10.67;3.93;;;7.20;99.90;;;;;;5016771;28;20506;-74
2024/01/05 05:40:14;;;;;;;8.40;3.30;;;7.30;99.90;;;;;;5016792;28;20460;-74
2024/01/05 05:42:41;;;;;;;9.10;3.87;;;7.30;99.90;;;;;;5017118;28;20803;-74
2024/01/05 05:45:09;;;;;;;10.93;3.67;;;7.30;99.90;;;;;;5017047;28;20496;-73
2024/01/05 05:47:37;;;;;;;12.07;3.50;;;7.30;99.90;;;;;;5019176;28;20808;-72
2024/01/05 05:50:06;;;;;;;9.53;4.00;;;7.30;99.90;;;;;;5020462;28;20519;-72
2024/01/05 05:52:35;;;;;;;10.10;4.47;;;7.30;99.90;;;;;;5020584;28;20466;-73
2024/01/05 05:55:03;;;;;;;9.67;3.60;;;7.30;99.90;;;;;;5020800;28;20463;-73
2024/01/05 05:57:31;;;;;;;11.00;4.63;;;7.30;99.90;;;;;;5019926;28;20554;-73
2024/01/05 05:59:59;;;;;;;12.90;6.47;;;7.30;99.90;;;;;;5020151;28;20512;-73
2024/01/05 06:02:26;;;;;;;9.87;5.10;;;7.40;99.90;;;;;;5020458;28;20470;-74
2024/01/05 06:04:54;;;;;;;13.47;6.97;;;7.40;99.90;;;;;;5020982;28;20908;-72
2024/01/05 06:07:23;;;;;;;13.43;6.73;;;7.40;99.90;;;;;;5020121;28;20471;-71
2024/01/05 06:09:52;;;;;;;9.83;4.77;;;7.50;99.90;;;;;;5020195;28;20460;-72
2024/01/05 06:12:19;;;;;;;14.87;5.87;;;7.40;99.90;;;;;;5009939;28;20851;-71
2024/01/05 06:14:47;;;;;;;12.50;5.20;;;7.40;99.90;;;;;;5001076;28;20471;-71
2024/01/05 06:17:14;;;;;;;19.87;9.20;;;7.40;99.90;;;;;;5000503;28;20523;-70
2024/01/05 06:19:42;;;;;;;30.50;15.80;;;7.50;99.90;;;;;;4999085;28;20465;-71
2024/01/05 06:22:09;;;;;;;19.90;8.23;;;7.50;99.90;;;;;;4999387;28;20465;-72
2024/01/05 06:24:36;;;;;;;27.07;11.10;;;7.50;99.90;;;;;;5000157;28;20596;-72
2024/01/05 06:27:05;;;;;;;20.87;11.20;;;7.50;99.90;;;;;;5000685;28;20628;-71
2024/01/05 06:29:32;;;;;;;27.87;13.23;;;7.50;99.90;;;;;;4999962;28;20829;-71
2024/01/05 06:32:01;;;;;;;20.43;10.30;;;7.40;99.90;;;;;;5000063;28;20898;-68
2024/01/05 06:34:28;;;;;;;6.70;3.73;;;7.40;99.90;;;;;;4999822;28;20803;-71
2024/01/05 06:36:55;;;;;;;21.43;10.80;;;7.30;99.90;;;;;;4998270;28;20461;-72
2024/01/05 06:39:23;;;;;;;31.07;14.27;;;7.30;99.90;;;;;;4998745;28;20493;-72
2024/01/05 06:41:50;;;;;;;22.40;9.60;;;7.20;99.90;;;;;;4998705;28;20821;-71
2024/01/05 06:44:19;;;;;;;20.53;10.87;;;7.20;99.90;;;;;;4999512;28;20555;-72
2024/01/05 06:46:46;;;;;;;24.87;13.40;;;7.10;99.90;;;;;;4998687;28;20575;-71
2024/01/05 06:49:13;;;;;;;17.37;10.60;;;7.10;99.90;;;;;;4999691;28;20457;-71
2024/01/05 06:51:41;;;;;;;7.90;3.33;;;7.10;99.90;;;;;;4999614;28;20497;-72
2024/01/05 06:54:08;;;;;;;11.37;5.90;;;7.10;99.90;;;;;;4999889;28;20511;-72
2024/01/05 06:56:36;;;;;;;11.10;5.20;;;7.10;99.90;;;;;;4999933;28;20465;-71
2024/01/05 06:59:04;;;;;;;11.20;4.83;;;7.10;99.90;;;;;;4998860;28;20516;-70
2024/01/05 07:01:33;;;;;;;10.67;4.60;;;7.10;99.90;;;;;;4999599;28;20552;-71
2024/01/05 07:04:00;;;;;;;10.20;6.40;;;7.00;99.90;;;;;;4999308;28;20557;-73
2024/01/05 07:06:27;;;;;;;10.80;6.10;;;7.10;99.90;;;;;;4999306;28;20535;-72
2024/01/05 07:08:54;;;;;;;8.80;4.53;;;7.10;99.90;;;;;;4998315;28;20469;-72
2024/01/05 07:11:22;;;;;;;9.57;4.37;;;7.20;99.90;;;;;;4999747;28;20894;-71
2024/01/05 07:13:50;;;;;;;7.93;3.20;;;7.20;99.90;;;;;;4999527;28;20523;-72
2024/01/05 07:16:18;;;;;;;9.77;4.13;;;7.20;99.90;;;;;;4999421;28;20457;-70
2024/01/05 07:18:47;;;;;;;8.23;3.37;;;7.20;99.90;;;;;;4999622;28;20562;-72
2024/01/05 07:21:14;;;;;;;6.77;2.90;;;7.30;99.90;;;;;;4999830;28;20537;-72
2024/01/05 07:23:42;;;;;;;7.07;3.47;;;7.30;99.90;;;;;;4999477;28;20556;-72
2024/01/05 07:26:10;;;;;;;7.90;3.27;;;7.30;99.90;;;;;;4998678;28;20571;-70
2024/01/05 07:28:37;;;;;;;10.50;3.57;;;7.30;99.90;;;;;;4999315;28;20508;-72
2024/01/05 07:31:05;;;;;;;8.13;2.80;;;7.30;99.90;;;;;;4999199;28;20461;-72
2024/01/05 07:33:32;;;;;;;7.00;3.43;;;7.40;99.90;;;;;;4998834;28;20467;-72
2024/01/05 07:36:05;;;;;;;9.83;3.20;;;7.40;99.90;;;;;;4999022;28;20824;-72
2024/01/05 07:38:34;;;;;;;7.50;3.23;;;7.40;99.90;;;;;;4998975;28;20456;-68
2024/01/05 07:41:02;;;;;;;10.13;3.10;;;7.50;99.90;;;;;;5003917;28;20766;-72
2024/01/05 07:43:30;;;;;;;8.23;2.93;;;7.50;99.90;;;;;;4998612;28;20497;-70
2024/01/05 07:45:57;;;;;;;7.93;3.87;;;7.50;99.90;;;;;;4998740;28;20535;-70
2024/01/05 07:48:25;;;;;;;8.77;3.97;;;7.50;99.90;;;;;;4998670;28;20461;-70
2024/01/05 07:50:52;;;;;;;7.03;3.20;;;7.60;99.90;;;;;;4998793;28;20491;-70
2024/01/05 07:53:21;;;;;;;7.57;3.20;;;7.60;99.90;;;;;;4998683;28;20540;-71
2024/01/05 07:55:48;;;;;;;4.93;2.50;;;7.60;99.90;;;;;;4996941;28;20461;-71
2024/01/05 07:58:16;;;;;;;6.57;3.40;;;7.60;99.90;;;;;;4996249;28;20543;-71
2024/01/05 08:00:43;;;;;;;7.60;3.10;;;7.60;99.90;;;;;;4997103;28;20563;-70
2024/01/05 08:03:11;;;;;;;5.80;2.73;;;7.60;99.90;;;;;;4997423;28;20932;-66
2024/01/05 08:05:38;;;;;;;6.40;2.80;;;7.60;99.90;;;;;;4996737;28;20499;-68
2024/01/05 08:08:06;;;;;;;6.30;2.90;;;7.60;99.90;;;;;;4996831;28;20515;-68
2024/01/05 08:10:35;;;;;;;7.33;2.73;;;7.60;99.90;;;;;;4997593;28;20882;-71
2024/01/05 08:13:02;;;;;;;5.03;2.90;;;7.60;99.90;;;;;;4998417;28;20476;-69
2024/01/05 08:15:29;;;;;;;4.90;2.90;;;7.60;99.90;;;;;;4997818;28;20464;-68
2024/01/05 08:17:57;;;;;;;6.30;3.27;;;7.60;99.90;;;;;;4996610;28;20829;-70
2024/01/05 08:20:25;;;;;;;8.60;3.10;;;7.70;99.90;;;;;;4996451;28;20804;-68
2024/01/05 08:22:52;;;;;;;5.27;3.03;;;7.70;99.90;;;;;;4996850;28;20465;-68
2024/01/05 08:25:21;;;;;;;10.43;4.10;;;7.70;99.90;;;;;;4995891;28;20488;-68
2024/01/05 08:27:49;;;;;;;4.93;2.60;;;7.70;1.00;;;;;;4996490;28;20457;-69
2024/01/05 08:30:17;;;;;;;6.53;3.43;;;7.70;26.40;;;;;;4996596;28;20511;-68
2024/01/05 08:32:46;;;;;;;5.93;3.53;;;7.70;1.00;;;;;;4997986;28;20926;-68
2024/01/05 08:35:13;;;;;;;7.47;3.07;;;7.70;1.00;;;;;;4998236;28;20500;-67
2024/01/05 08:37:40;;;;;;;13.20;4.00;;;7.80;1.00;;;;;;4997690;28;20539;-69
2024/01/05 08:40:09;;;;;;;4.87;2.50;;;7.80;99.90;;;;;;4997547;28;20496;-68
2024/01/05 08:42:36;;;;;;;7.70;2.73;;;7.80;99.90;;;;;;4997780;28;20969;-68
2024/01/05 08:45:06;;;;;;;6.67;2.97;;;7.90;99.90;;;;;;4997488;28;20457;-68
2024/01/05 08:47:33;;;;;;;8.10;2.60;;;7.80;99.90;;;;;;4997429;28;20791;-68
2024/01/05 08:50:01;;;;;;;7.40;3.10;;;7.80;99.90;;;;;;4997760;28;20955;-71
2024/01/05 08:52:28;;;;;;;5.37;2.63;;;7.80;99.90;;;;;;4996488;28;20526;-66
2024/01/05 08:54:55;;;;;;;5.53;2.50;;;7.80;99.90;;;;;;4996241;28;20469;-67
2024/01/05 08:57:23;;;;;;;6.93;2.80;;;7.90;99.90;;;;;;4996203;28;20461;-67
2024/01/05 08:59:50;;;;;;;6.40;2.80;;;7.90;99.90;;;;;;4995581;28;20543;-67
2024/01/05 09:02:19;;;;;;;6.40;2.77;;;7.90;99.90;;;;;;4995745;28;20460;-65
2024/01/05 09:04:48;;;;;;;5.67;2.43;;;7.90;99.90;;;;;;4996675;28;20862;-67
2024/01/05 09:07:16;;;;;;;5.57;2.80;;;8.00;99.90;;;;;;4997559;28;20521;-67
2024/01/05 09:09:43;;;;;;;5.60;2.23;;;8.00;99.90;;;;;;4997740;28;20527;-67
2024/01/05 09:12:11;;;;;;;5.57;2.67;;;8.00;99.90;;;;;;4997651;28;20567;-66
2024/01/05 09:14:38;;;;;;;7.60;2.60;;;8.10;99.90;;;;;;4997838;28;20563;-68
2024/01/05 09:17:06;;;;;;;6.40;2.83;;;8.00;39.40;;;;;;4997301;28;20465;-67
2024/01/05 09:19:35;;;;;;;3.60;2.03;;;8.10;1.00;;;;;;4995801;28;20520;-67
2024/01/05 09:22:03;;;;;;;3.40;2.00;;;8.10;1.00;;;;;;4998128;28;20464;-67
2024/01/05 09:24:31;;;;;;;5.60;2.73;;;8.10;1.00;;;;;;5001311;28;21160;-68
2024/01/05 09:26:58;;;;;;;3.90;2.50;;;8.10;1.00;;;;;;5000623;28;20975;-67
2024/01/05 09:29:26;;;;;;;4.27;2.07;;;8.10;1.00;;;;;;5000965;28;20461;-67
2024/01/05 09:31:53;;;;;;;5.00;2.10;;;8.10;1.00;;;;;;5001421;28;20460;-67
2024/01/05 09:34:20;;;;;;;3.03;1.60;;;8.10;1.00;;;;;;5016696;28;20510;-67
2024/01/05 09:36:50;;;;;;;3.80;1.57;;;8.10;1.00;;;;;;5020689;28;20460;-64
2024/01/05 09:39:18;;;;;;;4.87;2.20;;;8.00;1.00;;;;;;5019466;28;20518;-66
2024/01/05 09:41:48;;;;;;;2.93;1.70;;;8.10;1.00;;;;;;5019353;28;20509;-71
2024/01/05 09:44:16;;;;;;;4.60;2.07;;;8.00;1.00;;;;;;5020133;28;20459;-67
2024/01/05 09:46:45;;;;;;;3.97;1.90;;;8.10;1.00;;;;;;5019767;28;20831;-68
2024/01/05 09:49:16;;;;;;;3.67;1.67;;;8.10;1.00;;;;;;5020287;28;20456;-67
2024/01/05 09:51:46;;;;;;;3.30;1.50;;;8.20;1.00;;;;;;5018956;28;20759;-67
2024/01/05 09:54:16;;;;;;;3.80;1.60;;;8.20;1.00;;;;;;5019434;28;20554;-67
2024/01/05 09:56:47;;;;;;;2.43;1.40;;;8.20;1.00;;;;;;5019950;28;20882;-67
2024/01/05 09:59:17;;;;;;;5.10;1.60;;;8.20;1.00;;;;;;5019647;28;20460;-67
2024/01/05 10:01:48;;;;;;;2.93;1.47;;;8.30;1.00;;;;;;5019650;28;20510;-66
2024/01/05 10:04:16;;;;;;;3.27;1.90;;;8.40;1.00;;;;;;5020489;28;20460;-67
2024/01/05 10:06:44;;;;;;;3.13;2.00;;;8.40;1.00;;;;;;5020215;28;20494;-68
2024/01/05 10:09:11;;;;;;;3.67;1.90;;;8.40;1.00;;;;;;5020285;28;20762;-68
2024/01/05 10:11:42;;;;;;;4.60;1.93;;;8.40;1.00;;;;;;5019638;28;20463;-63
2024/01/05 10:14:15;;;;;;;4.00;2.00;;;8.40;1.00;;;;;;5017367;28;20466;-67
2024/01/05 10:16:43;;;;;;;3.07;1.97;;;8.30;1.00;;;;;;5019209;28;20467;-67
2024/01/05 10:19:12;;;;;;;3.20;2.00;;;8.30;1.00;;;;;;5019450;28;20467;-68
2024/01/05 10:21:40;;;;;;;2.60;1.90;;;8.30;1.00;;;;;;5011915;28;20453;-67
2024/01/05 10:24:16;;;;;;;4.40;2.03;;;8.20;1.00;;;;;;4999511;28;20483;-66
2024/01/05 10:26:45;;;;;;;3.67;2.53;;;8.20;1.00;;;;;;4998268;28;20547;-66
2024/01/05 10:29:17;;;;;;;5.00;1.83;;;8.20;1.00;;;;;;4999095;28;20465;-67
2024/01/05 10:31:45;;;;;;;2.50;1.40;;;8.10;1.00;;;;;;4996314;28;20480;-71
2024/01/05 10:34:14;;;;;;;4.10;1.83;;;8.00;1.00;;;;;;4996431;28;20817;-65
2024/01/05 10:36:42;;;;;;;2.50;1.53;;;8.00;1.00;;;;;;4996499;28;20457;-67
2024/01/05 10:39:10;;;;;;;2.53;1.50;;;8.00;1.00;;;;;;4995348;28;20839;-73
2024/01/05 10:41:37;;;;;;;2.87;1.60;;;7.90;1.00;;;;;;4996948;28;20949;-68
2024/01/05 10:44:09;;;;;;;3.97;1.80;;;7.90;1.00;;;;;;4996219;28;20453;-66
2024/01/05 10:46:38;;;;;;;3.80;1.70;;;7.90;1.00;;;;;;5007457;28;20496;-68
2024/01/05 10:49:06;;;;;;;4.17;1.70;;;7.90;1.00;;;;;;5017863;28;20751;-67
2024/01/05 10:51:35;;;;;;;3.40;1.50;;;7.90;1.00;;;;;;5018453;28;20767;-68
2024/01/05 10:54:03;;;;;;;2.87;1.50;;;7.90;1.00;;;;;;5018330;28;20468;-66
2024/01/05 10:56:31;;;;;;;3.33;2.03;;;7.90;1.00;;;;;;5018441;28;20693;-67
2024/01/05 10:58:59;;;;;;;3.93;1.90;;;7.90;1.00;;;;;;5018520;28;20464;-67
2024/01/05 11:01:31;;;;;;;2.93;1.60;;;7.90;1.00;;;;;;5017706;28;20460;-71
2024/01/05 11:03:59;;;;;;;2.63;1.50;;;7.90;1.00;;;;;;5018140;28;20470;-68
2024/01/05 11:06:26;;;;;;;3.20;1.47;;;7.80;1.00;;;;;;5018128;28;20464;-67
2024/01/05 11:09:10;;;;;;;3.83;1.60;;;7.80;1.00;;;;;;5018538;28;20551;-68
2024/01/05 11:11:49;;;;;;;2.93;1.60;;;7.80;1.00;;;;;;5018117;28;20492;-67
2024/01/05 11:14:53;;;;;;;2.47;1.67;;;7.80;1.00;;;;;;5018911;28;20490;-72
2024/01/05 11:18:03;;;;;;;3.00;1.47;;;7.90;1.00;;;;;;5017993;28;20460;-72
2024/01/05 11:21:00;;;;;;;2.70;1.53;;;7.90;1.00;;;;;;5007946;28;20778;-73
2024/01/05 11:23:29;;;;;;;3.27;1.87;;;7.90;1.00;;;;;;5017334;28;20471;-72
2024/01/05 11:25:57;;;;;;;3.35;1.60;;;7.90;1.00;;;;;;4949733;28;1783623;-72
2024/01/05 11:28:53;;;;;;;2.30;1.47;;;7.90;1.00;;;;;;4998423;28;20230;-72
2024/01/05 11:31:52;;;;;;;3.57;1.40;;;7.90;1.00;;;;;;4994491;28;20487;-72
2024/01/05 11:34:34;;;;;;;2.87;1.80;;;8.00;1.00;;;;;;4997769;28;20482;-72
2024/01/05 11:37:04;;;;;;;2.07;1.40;;;8.00;1.00;;;;;;4997937;28;20723;-72
2024/01/05 11:39:46;;;;;;;3.67;2.27;;;8.00;1.00;;;;;;4996806;28;20440;-67
2024/01/05 11:42:33;;;;;;;3.10;2.03;;;8.00;1.00;;;;;;4995580;28;20739;-72
2024/01/05 11:45:02;;;;;;;2.77;1.60;;;8.00;1.00;;;;;;4995633;28;20472;-72
2024/01/05 11:47:43;;;;;;;2.20;1.60;;;8.00;1.00;;;;;;4996271;28;20504;-73
2024/01/05 11:50:32;;;;;;;2.50;1.40;;;8.00;1.00;;;;;;4996898;28;20559;-73
2024/01/05 11:53:14;;;;;;;2.30;1.40;;;8.00;1.00;;;;;;4997484;28;20788;-72
2024/01/05 11:55:49;;;;;;;2.63;1.73;;;8.00;1.00;;;;;;4997515;28;20472;-71
2024/01/05 11:58:19;;;;;;;2.93;1.53;;;8.00;1.00;;;;;;4998620;28;20737;-72
2024/01/05 12:00:46;;;;;;;3.47;2.00;;;8.00;1.00;;;;;;4998576;28;20465;-72
2024/01/05 12:03:15;;;;;;;2.93;1.80;;;8.00;1.00;;;;;;4999003;28;20472;-72
2024/01/05 12:05:44;;;;;;;2.90;1.77;;;8.00;1.00;;;;;;4998064;28;20519;-73
2024/01/05 12:08:12;;;;;;;3.90;2.37;;;8.00;1.00;;;;;;4998536;28;20505;-72
2024/01/05 12:10:41;;;;;;;2.57;1.60;;;8.00;1.00;;;;;;4998794;28;20950;-73
2024/01/05 12:13:09;;;;;;;3.20;1.67;;;8.10;1.00;;;;;;4998311;28;20465;-67
2024/01/05 12:15:38;;;;;;;3.30;1.53;;;8.00;1.00;;;;;;4998115;28;20464;-72
2024/01/05 12:18:08;;;;;;;4.73;3.17;;;8.00;1.00;;;;;;4998197;28;20472;-72
2024/01/05 12:20:35;;;;;;;5.93;1.80;;;8.00;1.00;;;;;;4997683;28;20467;-73
2024/01/05 12:23:04;;;;;;;4.00;2.33;;;7.90;1.00;;;;;;4998622;28;20460;-72
2024/01/05 12:25:35;;;;;;;4.37;2.00;;;7.90;1.00;;;;;;4998029;28;20957;-73
2024/01/05 12:28:04;;;;;;;9.13;4.10;;;8.00;1.00;;;;;;4996931;28;20515;-70
2024/01/05 12:30:33;;;;;;;9.03;4.47;;;8.00;1.00;;;;;;4996063;28;20561;-72
2024/01/05 12:33:00;;;;;;;3.50;2.40;;;8.10;1.00;;;;;;4996713;28;20539;-72
2024/01/05 12:35:28;;;;;;;5.97;2.20;;;8.20;1.00;;;;;;4997302;28;20456;-72
2024/01/05 12:37:57;;;;;;;4.73;2.30;;;8.20;1.00;;;;;;4997518;28;20461;-70
2024/01/05 12:40:28;;;;;;;6.67;3.50;;;8.10;1.00;;;;;;4996661;28;20508;-71
2024/01/05 12:42:56;;;;;;;3.60;1.60;;;8.20;1.00;;;;;;4998081;28;20507;-68
2024/01/05 12:45:24;;;;;;;4.93;3.53;;;8.10;1.00;;;;;;4997097;28;20461;-71
2024/01/05 12:47:52;;;;;;;2.90;1.80;;;8.10;1.00;;;;;;4995565;28;20669;-68
2024/01/05 12:50:26;;;;;;;4.27;1.90;;;8.00;1.00;;;;;;4995879;28;20442;-71
2024/01/05 12:52:55;;;;;;;3.13;1.70;;;8.00;1.00;;;;;;4996297;28;20969;-70
2024/01/05 12:55:31;;;;;;;3.40;1.70;;;7.90;1.00;;;;;;4996496;28;20465;-71
2024/01/05 12:58:02;;;;;;;2.90;1.70;;;7.90;1.00;;;;;;4995335;28;20460;-70
2024/01/05 13:00:31;;;;;;;4.20;2.40;;;7.90;1.00;;;;;;4997154;28;20555;-72
2024/01/05 13:02:59;;;;;;;4.63;1.90;;;7.90;1.00;;;;;;4997782;28;20464;-70